createdAt,value
2022-09-22T00:01:13.739Z,99.90
2022-09-22T00:03:44.553Z,99.90
2022-09-22T00:06:23.027Z,99.90
2022-09-22T00:08:53.274Z,99.90
2022-09-22T00:11:28.456Z,99.90
2022-09-22T00:13:59.787Z,99.90
2022-09-22T00:16:45.250Z,99.90
2022-09-22T00:19:19.242Z,99.90
2022-09-22T00:21:47.112Z,99.90
2022-09-22T00:24:14.119Z,99.90
2022-09-22T00:26:41.328Z,99.90
2022-09-22T00:29:09.714Z,99.90
2022-09-22T00:31:38.767Z,99.90
2022-09-22T00:34:06.491Z,99.90
2022-09-22T00:36:33.986Z,99.90
2022-09-22T00:39:01.099Z,99.90
2022-09-22T00:41:30.939Z,99.90
2022-09-22T00:44:16.549Z,99.90
2022-09-22T00:46:45.831Z,99.90
2022-09-22T00:49:15.527Z,99.90
2022-09-22T00:51:44.553Z,99.90
2022-09-22T00:54:16.333Z,99.90
2022-09-22T00:57:05.024Z,99.90
2022-09-22T00:59:33.377Z,99.90
2022-09-22T01:02:01.190Z,99.90
2022-09-22T01:04:28.907Z,99.90
2022-09-22T01:06:58.009Z,99.90
2022-09-22T01:09:26.915Z,99.90
2022-09-22T01:11:53.675Z,99.90
2022-09-22T01:14:29.328Z,99.90
2022-09-22T01:17:19.282Z,99.90
2022-09-22T01:20:31.639Z,99.90
2022-09-22T01:23:30.972Z,99.90
2022-09-22T01:26:27.856Z,99.90
2022-09-22T01:29:07.202Z,99.90
2022-09-22T01:32:01.313Z,99.90
2022-09-22T01:34:37.036Z,99.90
2022-09-22T01:37:29.231Z,99.90
2022-09-22T01:40:04.631Z,99.90
2022-09-22T01:42:45.700Z,99.90
2022-09-22T01:45:26.317Z,99.90
2022-09-22T01:48:06.568Z,99.90
2022-09-22T01:51:07.775Z,99.90
2022-09-22T01:53:42.799Z,99.90
2022-09-22T01:56:11.764Z,99.90
2022-09-22T01:58:44.957Z,99.90
2022-09-22T02:01:15.759Z,99.90
2022-09-22T02:03:51.401Z,99.90
2022-09-22T02:06:22.466Z,99.90
2022-09-22T02:09:04.745Z,99.90
2022-09-22T02:11:33.196Z,99.90
2022-09-22T02:14:01.009Z,99.90
2022-09-22T02:16:28.042Z,99.90
2022-09-22T02:19:18.224Z,99.90
2022-09-22T02:21:47.227Z,99.90
2022-09-22T02:24:47.541Z,99.90
2022-09-22T02:27:36.332Z,99.90
2022-09-22T02:30:09.618Z,99.90
2022-09-22T02:32:40.198Z,99.90
2022-09-22T02:35:08.845Z,99.90
2022-09-22T02:37:43.507Z,99.90
2022-09-22T02:40:19.461Z,99.90
2022-09-22T02:42:53.698Z,99.90
2022-09-22T02:45:34.469Z,99.90
2022-09-22T02:48:15.380Z,99.90
2022-09-22T02:50:43.197Z,99.90
2022-09-22T02:53:13.737Z,99.90
2022-09-22T02:55:41.749Z,99.90
2022-09-22T02:58:08.537Z,99.90
2022-09-22T03:00:37.368Z,99.90
2022-09-22T03:03:04.672Z,99.90
2022-09-22T03:05:31.406Z,99.90
2022-09-22T03:07:58.510Z,99.90
2022-09-22T03:10:25.360Z,99.90
2022-09-22T03:13:15.131Z,99.90
2022-09-22T03:15:39.248Z,99.90
2022-09-22T03:18:06.003Z,99.90
2022-09-22T03:20:32.722Z,99.90
2022-09-22T03:22:59.490Z,99.90
2022-09-22T03:25:26.348Z,99.90
2022-09-22T03:27:53.157Z,99.90
2022-09-22T03:30:20.889Z,99.90
2022-09-22T03:32:47.600Z,99.90
2022-09-22T03:35:14.505Z,99.90
2022-09-22T03:37:41.254Z,99.90
2022-09-22T03:40:08.287Z,99.90
2022-09-22T03:42:37.120Z,99.90
2022-09-22T03:45:05.152Z,99.90
2022-09-22T03:47:32.017Z,99.90
2022-09-22T03:49:58.980Z,99.90
2022-09-22T03:52:25.870Z,99.90
2022-09-22T03:54:53.158Z,99.90
2022-09-22T03:57:19.987Z,99.90
2022-09-22T03:59:46.766Z,99.90
2022-09-22T04:02:14.021Z,99.90
2022-09-22T04:04:40.747Z,99.90
2022-09-22T04:07:07.743Z,99.90
2022-09-22T04:09:34.687Z,99.90
2022-09-22T04:12:01.697Z,99.90
2022-09-22T04:14:28.563Z,99.90
2022-09-22T04:16:55.543Z,99.90
2022-09-22T04:19:22.728Z,99.90
2022-09-22T04:21:53.238Z,99.90
2022-09-22T04:24:24.305Z,99.90
2022-09-22T04:27:15.147Z,99.90
2022-09-22T04:29:37.904Z,99.90
2022-09-22T04:32:05.179Z,99.90
2022-09-22T04:34:31.882Z,99.90
2022-09-22T04:36:58.712Z,99.90
2022-09-22T04:39:25.721Z,99.90
2022-09-22T04:41:52.472Z,99.90
2022-09-22T04:44:19.170Z,99.90
2022-09-22T04:47:37.631Z,99.90
2022-09-22T04:50:04.764Z,99.90
2022-09-22T04:52:31.483Z,99.90
2022-09-22T04:54:58.422Z,99.90
2022-09-22T04:57:25.129Z,99.90
2022-09-22T04:59:51.867Z,99.90
2022-09-22T05:02:19.083Z,99.90
2022-09-22T05:04:45.783Z,99.90
2022-09-22T05:07:12.516Z,99.90
2022-09-22T05:09:39.221Z,99.90
2022-09-22T05:12:06.200Z,99.90
2022-09-22T05:14:34.595Z,99.90
2022-09-22T05:17:02.502Z,99.90
2022-09-22T05:19:29.376Z,99.90
2022-09-22T05:21:56.258Z,99.90
2022-09-22T05:24:23.013Z,99.90
2022-09-22T05:26:50.297Z,99.90
2022-09-22T05:29:18.351Z,99.90
2022-09-22T05:31:46.140Z,99.90
2022-09-22T05:34:13.115Z,99.90
2022-09-22T05:36:39.875Z,99.90
2022-09-22T05:39:06.764Z,99.90
2022-09-22T05:41:33.696Z,99.90
2022-09-22T05:44:00.629Z,99.90
2022-09-22T05:46:27.327Z,99.90
2022-09-22T05:48:54.082Z,99.90
2022-09-22T05:51:20.767Z,99.90
2022-09-22T05:53:47.552Z,99.90
2022-09-22T05:56:14.280Z,99.90
2022-09-22T05:58:41.033Z,99.90
2022-09-22T06:01:07.784Z,99.90
2022-09-22T06:03:34.909Z,99.90
2022-09-22T06:06:01.641Z,99.90
2022-09-22T06:08:28.376Z,99.90
2022-09-22T06:10:56.242Z,99.90
2022-09-22T06:13:22.917Z,99.90
2022-09-22T06:15:50.654Z,99.90
2022-09-22T06:18:24.673Z,99.90
2022-09-22T06:20:52.510Z,99.90
2022-09-22T06:23:20.200Z,99.90
2022-09-22T06:25:46.947Z,99.90
2022-09-22T06:28:14.620Z,99.90
2022-09-22T06:30:42.406Z,99.90
2022-09-22T06:33:10.530Z,99.90
2022-09-22T06:35:37.817Z,99.90
2022-09-22T06:38:06.601Z,99.90
2022-09-22T06:40:36.146Z,99.90
2022-09-22T06:43:08.448Z,99.90
2022-09-22T06:45:35.499Z,99.90
2022-09-22T06:48:07.552Z,99.90
2022-09-22T06:50:36.845Z,99.90
2022-09-22T06:53:11.037Z,99.90
2022-09-22T06:55:38.031Z,99.90
2022-09-22T06:58:04.934Z,99.90
2022-09-22T07:00:32.777Z,99.90
2022-09-22T07:03:13.248Z,99.90
2022-09-22T07:05:40.035Z,99.90
2022-09-22T07:08:06.973Z,99.90
2022-09-22T07:10:38.129Z,99.90
2022-09-22T07:13:06.102Z,99.90
2022-09-22T07:15:34.807Z,99.90
2022-09-22T07:18:01.779Z,99.90
2022-09-22T07:20:28.939Z,99.90
2022-09-22T07:23:00.811Z,99.90
2022-09-22T07:25:29.031Z,99.90
2022-09-22T07:28:04.939Z,99.90
2022-09-22T07:30:34.254Z,99.90
2022-09-22T07:33:23.616Z,99.90
2022-09-22T07:36:08.985Z,99.90
2022-09-22T07:38:37.464Z,99.90
2022-09-22T07:41:06.744Z,99.90
2022-09-22T07:43:34.395Z,99.90
2022-09-22T07:46:01.768Z,99.90
2022-09-22T07:48:45.630Z,99.90
2022-09-22T07:51:21.513Z,99.90
2022-09-22T07:54:09.564Z,99.90
2022-09-22T07:56:40.228Z,99.90
2022-09-22T07:59:11.822Z,99.90
2022-09-22T08:01:44.221Z,99.90
2022-09-22T08:04:12.322Z,99.90
2022-09-22T08:06:39.129Z,99.90
2022-09-22T08:09:08.126Z,99.90
2022-09-22T08:11:34.890Z,99.90
2022-09-22T08:14:04.786Z,99.90
2022-09-22T08:16:34.864Z,99.90
2022-09-22T08:19:10.546Z,99.90
2022-09-22T08:21:47.778Z,99.90
2022-09-22T08:24:21.323Z,99.90
2022-09-22T08:26:53.025Z,99.90
2022-09-22T08:29:20.760Z,99.90
2022-09-22T08:31:49.369Z,99.90
2022-09-22T08:34:16.943Z,99.90
2022-09-22T08:36:48.653Z,99.90
2022-09-22T08:39:17.138Z,99.90
2022-09-22T08:42:18.265Z,99.90
2022-09-22T08:45:01.344Z,96.90
2022-09-22T08:47:59.072Z,95.70
2022-09-22T08:51:07.853Z,93.50
2022-09-22T08:53:43.385Z,94.40
2022-09-22T08:56:55.076Z,93.40
2022-09-22T08:59:27.195Z,91.70
2022-09-22T09:02:25.756Z,91.20
2022-09-22T09:05:06.457Z,90.60
2022-09-22T09:07:45.743Z,90.50
2022-09-22T09:10:37.220Z,88.40
2022-09-22T09:13:15.704Z,90.30
2022-09-22T09:16:08.895Z,90.20
2022-09-22T09:18:40.634Z,89.80
2022-09-22T09:21:13.632Z,88.90
2022-09-22T09:26:35.955Z,88.00
2022-09-22T09:29:08.221Z,87.30
2022-09-22T09:31:46.602Z,90.30
2022-09-22T09:34:18.566Z,86.40
2022-09-22T09:36:55.231Z,87.50
2022-09-22T09:39:31.713Z,86.00
2022-09-22T09:42:00.444Z,81.90
2022-09-22T09:44:29.195Z,77.50
2022-09-22T09:47:15.375Z,76.60
2022-09-22T09:49:42.139Z,79.30
2022-09-22T09:52:14.369Z,80.10
2022-09-22T09:54:43.395Z,79.90
2022-09-22T09:57:17.822Z,77.70
2022-09-22T10:00:05.385Z,80.30
2022-09-22T10:03:02.626Z,78.30
2022-09-22T10:05:30.332Z,79.50
2022-09-22T10:08:01.188Z,82.80
2022-09-22T10:10:39.137Z,85.70
2022-09-22T10:13:05.829Z,74.30
2022-09-22T10:15:38.025Z,74.70
2022-09-22T10:18:26.487Z,71.60
2022-09-22T10:21:04.773Z,69.10
2022-09-22T10:23:32.583Z,69.60
2022-09-22T10:26:27.437Z,75.40
2022-09-22T10:29:16.690Z,69.00
2022-09-22T10:32:02.813Z,75.40
2022-09-22T10:34:38.486Z,73.40
2022-09-22T10:37:16.878Z,66.70
2022-09-22T10:39:57.933Z,66.20
2022-09-22T10:43:01.168Z,66.80
2022-09-22T10:46:03.350Z,70.70
2022-09-22T10:48:49.051Z,68.10
2022-09-22T10:51:31.096Z,67.60
2022-09-22T10:54:35.062Z,71.20
2022-09-22T10:57:26.144Z,70.30
2022-09-22T10:59:59.069Z,69.60
2022-09-22T11:02:45.274Z,65.80
2022-09-22T11:05:43.959Z,66.10
2022-09-22T11:08:36.086Z,66.70
2022-09-22T11:11:41.137Z,67.80
2022-09-22T11:14:38.488Z,68.30
2022-09-22T11:17:31.247Z,68.10
2022-09-22T11:20:13.167Z,72.20
2022-09-22T11:22:57.874Z,73.00
2022-09-22T11:25:31.057Z,66.80
2022-09-22T11:28:04.088Z,69.40
2022-09-22T11:30:49.384Z,69.30
2022-09-22T11:33:34.804Z,68.50
2022-09-22T11:36:15.389Z,65.00
2022-09-22T11:39:30.556Z,66.80
2022-09-22T11:42:09.398Z,64.50
2022-09-22T11:44:43.193Z,63.00
2022-09-22T11:47:54.247Z,63.20
2022-09-22T11:51:02.572Z,63.50
2022-09-22T11:54:01.263Z,63.30
2022-09-22T11:56:47.343Z,66.30
2022-09-22T11:59:51.081Z,69.50
2022-09-22T12:02:18.585Z,69.50
2022-09-22T12:05:08.606Z,62.90
2022-09-22T12:07:45.885Z,62.80
2022-09-22T12:10:24.300Z,62.10
2022-09-22T12:12:51.809Z,63.50
2022-09-22T12:15:21.793Z,62.90
2022-09-22T12:18:19.051Z,63.60
2022-09-22T12:21:04.668Z,63.70
2022-09-22T12:23:45.334Z,63.80
2022-09-22T12:26:31.365Z,65.20
2022-09-22T12:29:07.163Z,64.20
2022-09-22T12:31:38.512Z,67.60
2022-09-22T12:34:14.870Z,64.60
2022-09-22T12:36:47.142Z,66.60
2022-09-22T12:39:20.165Z,70.10
2022-09-22T12:42:01.794Z,62.90
2022-09-22T12:44:50.659Z,65.80
2022-09-22T12:47:26.211Z,73.50
2022-09-22T12:50:07.149Z,63.90
2022-09-22T12:52:39.704Z,61.80
2022-09-22T12:55:18.803Z,63.60
2022-09-22T12:57:47.961Z,69.20
2022-09-22T13:00:46.039Z,62.80
2022-09-22T13:03:24.813Z,60.70
2022-09-22T13:05:58.787Z,62.20
2022-09-22T13:08:52.418Z,64.50
2022-09-22T13:12:03.482Z,62.70
2022-09-22T13:14:59.772Z,64.10
2022-09-22T13:17:45.592Z,61.80
2022-09-22T13:20:16.012Z,62.80
2022-09-22T13:22:52.123Z,62.90
2022-09-22T13:25:25.348Z,65.20
2022-09-22T13:28:05.085Z,68.40
2022-09-22T13:30:32.290Z,62.60
2022-09-22T13:32:59.322Z,60.40
2022-09-22T13:36:25.349Z,62.70
2022-09-22T13:38:55.147Z,68.50
2022-09-22T13:41:24.720Z,65.60
2022-09-22T13:44:12.834Z,61.70
2022-09-22T13:46:41.044Z,66.00
2022-09-22T13:49:12.194Z,59.80
2022-09-22T13:51:39.571Z,60.00
2022-09-22T13:54:09.419Z,61.00
2022-09-22T13:56:37.845Z,62.90
2022-09-22T13:59:05.384Z,61.10
2022-09-22T14:01:32.279Z,60.10
2022-09-22T14:03:59.539Z,58.60
2022-09-22T14:06:30.500Z,64.50
2022-09-22T14:08:58.104Z,61.10
2022-09-22T14:11:29.948Z,60.90
2022-09-22T14:13:59.246Z,58.30
2022-09-22T14:16:51.044Z,59.80
2022-09-22T14:19:31.515Z,60.00
2022-09-22T14:22:01.662Z,62.40
2022-09-22T14:24:30.720Z,62.40
2022-09-22T14:27:06.398Z,62.00
2022-09-22T14:29:34.566Z,61.10
2022-09-22T14:32:13.118Z,63.40
2022-09-22T14:34:40.580Z,63.00
2022-09-22T14:37:20.609Z,63.60
2022-09-22T14:39:48.062Z,64.60
2022-09-22T14:42:25.801Z,63.10
2022-09-22T14:44:53.654Z,65.50
2022-09-22T14:47:29.315Z,66.50
2022-09-22T14:50:21.727Z,64.10
2022-09-22T14:53:02.070Z,65.50
2022-09-22T14:55:39.036Z,67.80
2022-09-22T14:58:28.425Z,69.40
2022-09-22T15:01:22.667Z,70.30
2022-09-22T15:04:03.250Z,67.60
2022-09-22T15:06:39.777Z,65.20
2022-09-22T15:09:12.715Z,67.00
2022-09-22T15:11:53.146Z,67.30
2022-09-22T15:14:36.639Z,67.10
2022-09-22T15:18:01.602Z,67.40
2022-09-22T15:20:34.885Z,71.50
2022-09-22T15:23:03.394Z,70.30
2022-09-22T15:25:30.173Z,69.80
2022-09-22T15:27:56.925Z,69.00
2022-09-22T15:30:25.444Z,66.70
2022-09-22T15:32:52.210Z,66.10
2022-09-22T15:35:20.250Z,66.70
2022-09-22T15:37:50.032Z,67.30
2022-09-22T15:40:21.122Z,67.60
2022-09-22T15:43:09.083Z,68.30
2022-09-22T15:45:37.269Z,69.30
2022-09-22T15:48:04.502Z,71.40
2022-09-22T15:50:31.273Z,71.40
2022-09-22T15:52:58.691Z,72.50
2022-09-22T15:55:25.469Z,71.40
2022-09-22T15:57:55.216Z,71.60
2022-09-22T16:00:28.762Z,72.20
2022-09-22T16:02:56.503Z,71.50
2022-09-22T16:05:23.635Z,72.90
2022-09-22T16:07:52.434Z,74.80
2022-09-22T16:10:23.602Z,74.70
2022-09-22T16:12:50.987Z,74.50
2022-09-22T16:15:18.172Z,75.40
2022-09-22T16:17:46.383Z,77.20
2022-09-22T16:20:17.387Z,76.60
2022-09-22T16:22:45.383Z,76.90
2022-09-22T16:25:12.968Z,76.70
2022-09-22T16:27:40.828Z,78.00
2022-09-22T16:30:08.672Z,78.00
2022-09-22T16:32:36.181Z,79.10
2022-09-22T16:35:03.686Z,79.80
2022-09-22T16:37:31.436Z,78.90
2022-09-22T16:39:58.241Z,78.50
2022-09-22T16:42:24.966Z,79.30
2022-09-22T16:44:51.661Z,80.40
2022-09-22T16:47:21.073Z,81.20
2022-09-22T16:49:51.852Z,82.20
2022-09-22T16:52:19.967Z,82.20
2022-09-22T16:54:46.698Z,82.30
2022-09-22T16:57:13.513Z,82.70
2022-09-22T16:59:40.634Z,83.00
2022-09-22T17:02:08.870Z,83.50
2022-09-22T17:04:35.577Z,84.00
2022-09-22T17:07:02.298Z,84.10
2022-09-22T17:09:31.601Z,84.50
2022-09-22T17:11:58.492Z,84.80
2022-09-22T17:14:27.158Z,84.90
2022-09-22T17:16:55.327Z,85.10
2022-09-22T17:19:26.618Z,86.00
2022-09-22T17:21:55.560Z,86.30
2022-09-22T17:24:23.793Z,86.50
2022-09-22T17:26:58.735Z,87.00
2022-09-22T17:29:31.502Z,88.30
2022-09-22T17:32:07.955Z,89.00
2022-09-22T17:34:35.386Z,89.80
2022-09-22T17:37:03.187Z,90.20
2022-09-22T17:39:31.797Z,90.30
2022-09-22T17:41:58.932Z,90.40
2022-09-22T17:44:28.737Z,90.80
2022-09-22T17:47:14.064Z,90.70
2022-09-22T17:49:59.410Z,91.10
2022-09-22T17:52:29.599Z,91.30
2022-09-22T17:55:07.035Z,91.60
2022-09-22T17:57:38.070Z,92.10
2022-09-22T18:00:08.170Z,92.30
2022-09-22T18:02:36.734Z,92.60
2022-09-22T18:05:08.556Z,93.00
2022-09-22T18:07:36.627Z,93.30
2022-09-22T18:10:06.745Z,93.60
2022-09-22T18:12:34.178Z,94.00
2022-09-22T18:15:04.308Z,94.50
2022-09-22T18:17:41.230Z,95.20
2022-09-22T18:20:15.285Z,95.80
2022-09-22T18:22:48.301Z,96.40
2022-09-22T18:25:19.325Z,97.20
2022-09-22T18:27:48.211Z,97.90
2022-09-22T18:30:16.372Z,98.40
2022-09-22T18:32:43.288Z,99.00
2022-09-22T18:35:11.067Z,99.40
2022-09-22T18:37:37.976Z,99.70
2022-09-22T18:40:06.158Z,99.90
2022-09-22T18:42:34.575Z,99.90
2022-09-22T18:45:01.266Z,99.90
2022-09-22T18:47:28.005Z,99.90
2022-09-22T18:49:55.054Z,99.90
2022-09-22T18:52:23.758Z,99.90
2022-09-22T18:54:53.707Z,99.90
2022-09-22T18:57:22.077Z,99.90
2022-09-22T18:59:50.782Z,99.90
2022-09-22T19:02:21.331Z,99.90
2022-09-22T19:04:49.801Z,99.90
2022-09-22T19:07:39.069Z,99.90
2022-09-22T19:10:13.521Z,99.90
2022-09-22T19:12:40.770Z,99.90
2022-09-22T19:15:13.295Z,99.90
2022-09-22T19:17:43.934Z,99.90
2022-09-22T19:20:20.902Z,99.90
2022-09-22T19:22:49.242Z,99.90
2022-09-22T19:25:17.065Z,99.90
2022-09-22T19:27:43.849Z,99.90
2022-09-22T19:30:13.109Z,99.90
2022-09-22T19:32:40.659Z,99.90
2022-09-22T19:35:09.965Z,99.90
2022-09-22T19:37:37.410Z,99.90
2022-09-22T19:40:09.519Z,99.90
2022-09-22T19:42:40.147Z,99.90
2022-09-22T19:45:07.983Z,99.90
2022-09-22T19:47:34.815Z,99.90
2022-09-22T19:50:03.430Z,99.90
2022-09-22T19:52:35.136Z,99.90
2022-09-22T19:55:02.251Z,99.90
2022-09-22T19:57:28.950Z,99.90
2022-09-22T20:00:26.065Z,99.90
2022-09-22T20:02:58.526Z,99.90
2022-09-22T20:05:36.768Z,99.90
2022-09-22T20:08:15.580Z,99.90
2022-09-22T20:10:43.854Z,99.90
2022-09-22T20:13:47.209Z,99.90
2022-09-22T20:16:13.947Z,99.90
2022-09-22T20:18:41.745Z,99.90
2022-09-22T20:21:13.750Z,99.90
2022-09-22T20:23:40.740Z,99.90
2022-09-22T20:26:09.284Z,99.90
2022-09-22T20:28:36.056Z,99.90
2022-09-22T20:31:02.832Z,99.90
2022-09-22T20:33:29.669Z,99.90
2022-09-22T20:35:58.018Z,99.90
2022-09-22T20:38:24.910Z,99.90
2022-09-22T20:40:51.667Z,99.90
2022-09-22T20:43:18.440Z,99.90
2022-09-22T20:45:45.428Z,99.90
2022-09-22T20:48:19.633Z,99.90
2022-09-22T20:50:57.535Z,99.90
2022-09-22T20:53:24.734Z,99.90
2022-09-22T20:56:08.704Z,99.90
2022-09-22T20:58:40.762Z,99.90
2022-09-22T21:01:09.746Z,99.90
2022-09-22T21:03:38.073Z,99.90
2022-09-22T21:06:09.247Z,99.90
2022-09-22T21:08:59.585Z,99.90
2022-09-22T21:11:27.803Z,99.90
2022-09-22T21:13:56.624Z,99.90
2022-09-22T21:16:25.236Z,99.90
2022-09-22T21:18:52.281Z,99.90
2022-09-22T21:21:20.511Z,99.90
2022-09-22T21:23:48.775Z,99.90
2022-09-22T21:26:16.997Z,99.90
2022-09-22T21:28:45.491Z,99.90
2022-09-22T21:31:14.660Z,99.90
2022-09-22T21:33:41.696Z,99.90
2022-09-22T21:36:14.423Z,99.90
2022-09-22T21:38:43.102Z,99.90
2022-09-22T21:41:12.381Z,99.90
2022-09-22T21:43:39.302Z,99.90
2022-09-22T21:46:11.531Z,99.90
2022-09-22T21:48:38.927Z,99.90
2022-09-22T21:51:19.532Z,99.90
2022-09-22T21:53:48.386Z,99.90
2022-09-22T21:56:17.172Z,99.90
2022-09-22T21:58:46.653Z,99.90
2022-09-22T22:01:16.307Z,99.90
2022-09-22T22:03:44.851Z,99.90
2022-09-22T22:06:18.266Z,99.90
2022-09-22T22:08:52.254Z,99.90
2022-09-22T22:11:22.642Z,99.90
2022-09-22T22:13:52.142Z,99.90
2022-09-22T22:16:24.975Z,99.90
2022-09-22T22:18:52.410Z,99.90
2022-09-22T22:21:22.843Z,99.90
2022-09-22T22:23:53.548Z,99.90
2022-09-22T22:26:23.724Z,99.90
2022-09-22T22:28:51.730Z,99.90
2022-09-22T22:31:23.072Z,99.90
2022-09-22T22:33:50.100Z,99.90
2022-09-22T22:36:18.550Z,99.90
2022-09-22T22:38:45.739Z,99.90
2022-09-22T22:41:17.182Z,99.90
2022-09-22T22:43:45.071Z,99.90
2022-09-22T22:46:16.530Z,99.90
2022-09-22T22:48:44.789Z,99.90
2022-09-22T22:51:15.012Z,99.90
2022-09-22T22:53:42.039Z,99.90
2022-09-22T22:56:19.813Z,99.90
2022-09-22T22:58:47.815Z,99.90
2022-09-22T23:01:20.564Z,99.90
2022-09-22T23:03:51.006Z,99.90
2022-09-22T23:06:21.209Z,99.90
2022-09-22T23:08:48.690Z,99.90
2022-09-22T23:11:30.169Z,99.90
2022-09-22T23:14:02.134Z,99.90
2022-09-22T23:16:36.750Z,99.90
2022-09-22T23:19:09.070Z,99.90
2022-09-22T23:21:36.831Z,99.90
2022-09-22T23:24:05.847Z,99.90
2022-09-22T23:26:32.620Z,99.90
2022-09-22T23:28:59.937Z,99.90
2022-09-22T23:31:27.770Z,99.90
2022-09-22T23:33:54.652Z,99.90
2022-09-22T23:36:25.161Z,99.90
2022-09-22T23:39:03.803Z,99.90
2022-09-22T23:41:36.175Z,99.90
2022-09-22T23:44:05.795Z,99.90
2022-09-22T23:46:33.885Z,99.90
2022-09-22T23:49:00.737Z,99.90
2022-09-22T23:51:27.999Z,99.90
2022-09-22T23:53:55.489Z,99.90
2022-09-22T23:56:24.903Z,99.90
2022-09-22T23:58:52.260Z,99.90
